createdAt,value
2019-01-18T00:02:13.727Z,1.30
2019-01-18T00:04:41.997Z,0.93
2019-01-18T00:07:10.121Z,1.47
2019-01-18T00:09:38.241Z,1.67
2019-01-18T00:12:06.417Z,0.97
2019-01-18T00:14:34.559Z,0.83
2019-01-18T00:17:02.697Z,1.53
2019-01-18T00:19:30.887Z,1.10
2019-01-18T00:21:59.045Z,1.03
2019-01-18T00:24:27.193Z,1.37
2019-01-18T00:26:55.327Z,1.30
2019-01-18T00:29:29.472Z,1.33
2019-01-18T00:31:53.422Z,1.20
2019-01-18T00:34:21.551Z,1.30
2019-01-18T00:36:49.729Z,1.20
2019-01-18T00:39:19.726Z,1.20
2019-01-18T00:41:47.923Z,1.43
2019-01-18T00:44:16.050Z,1.73
2019-01-18T00:46:44.184Z,1.40
2019-01-18T00:49:12.321Z,1.13
2019-01-18T00:51:40.461Z,1.10
2019-01-18T00:54:08.687Z,1.17
2019-01-18T00:56:36.965Z,0.87
2019-01-18T00:59:05.137Z,1.33
2019-01-18T01:01:33.274Z,1.23
2019-01-18T01:04:01.394Z,1.20
2019-01-18T01:06:29.651Z,0.70
2019-01-18T01:08:57.748Z,1.10
2019-01-18T01:11:25.884Z,1.63
2019-01-18T01:13:54.056Z,0.93
2019-01-18T01:16:22.183Z,1.40
2019-01-18T01:18:50.323Z,1.10
2019-01-18T01:21:18.509Z,1.23
2019-01-18T01:23:48.156Z,1.13
2019-01-18T01:26:16.297Z,0.90
2019-01-18T01:28:44.447Z,1.27
2019-01-18T01:31:12.588Z,0.50
2019-01-18T01:33:40.813Z,0.60
2019-01-18T01:36:08.935Z,0.67
2019-01-18T01:38:37.263Z,0.60
2019-01-18T01:41:05.506Z,0.60
2019-01-18T01:43:33.791Z,0.50
2019-01-18T01:46:01.977Z,0.50
2019-01-18T01:48:30.087Z,0.47
2019-01-18T01:50:58.316Z,0.63
2019-01-18T01:53:26.540Z,0.77
2019-01-18T01:55:54.645Z,0.70
2019-01-18T01:58:22.785Z,0.70
2019-01-18T02:00:50.948Z,1.07
2019-01-18T02:03:19.142Z,0.60
2019-01-18T02:05:47.317Z,0.57
2019-01-18T02:08:15.466Z,0.80
2019-01-18T02:10:43.605Z,0.90
2019-01-18T02:13:11.800Z,0.80
2019-01-18T02:15:39.965Z,0.70
2019-01-18T02:18:08.084Z,0.73
2019-01-18T02:20:36.236Z,0.60
2019-01-18T02:23:04.437Z,0.60
2019-01-18T02:25:32.582Z,0.80
2019-01-18T02:28:00.761Z,0.73
2019-01-18T02:30:28.895Z,0.70
2019-01-18T02:32:57.098Z,0.90
2019-01-18T02:35:25.217Z,1.00
2019-01-18T02:37:53.373Z,0.70
2019-01-18T02:40:21.566Z,0.70
2019-01-18T02:42:49.702Z,0.83
2019-01-18T02:45:18.986Z,0.80
2019-01-18T02:47:47.084Z,0.77
2019-01-18T02:50:15.340Z,0.73
2019-01-18T02:52:43.782Z,0.60
2019-01-18T02:55:11.913Z,0.60
2019-01-18T02:57:40.133Z,0.70
2019-01-18T03:00:21.762Z,0.57
2019-01-18T03:02:50.171Z,0.43
2019-01-18T03:05:19.937Z,0.40
2019-01-18T03:07:48.084Z,0.73
2019-01-18T03:10:17.739Z,0.67
2019-01-18T03:12:45.886Z,0.67
2019-01-18T03:15:14.245Z,0.93
2019-01-18T03:17:42.397Z,0.80
2019-01-18T03:20:11.844Z,0.80
2019-01-18T03:22:40.013Z,0.80
2019-01-18T03:25:12.017Z,1.07
2019-01-18T03:27:40.149Z,0.67
2019-01-18T03:30:18.036Z,0.60
2019-01-18T03:32:39.706Z,0.87
2019-01-18T03:35:08.886Z,0.80
2019-01-18T03:37:37.004Z,0.90
2019-01-18T03:40:06.617Z,0.90
2019-01-18T03:42:34.724Z,0.67
2019-01-18T03:45:03.321Z,0.87
2019-01-18T03:47:31.481Z,0.80
2019-01-18T03:49:59.604Z,1.20
2019-01-18T03:52:27.751Z,1.00
2019-01-18T03:54:55.942Z,0.93
2019-01-18T03:57:24.076Z,0.80
2019-01-18T03:59:52.218Z,0.70
2019-01-18T04:02:20.425Z,1.00
2019-01-18T04:04:48.567Z,0.93
2019-01-18T04:07:16.786Z,1.00
2019-01-18T04:09:44.943Z,0.90
2019-01-18T04:12:13.157Z,0.90
2019-01-18T04:14:41.248Z,1.13
2019-01-18T04:17:09.392Z,1.13
2019-01-18T04:19:37.548Z,0.87
2019-01-18T04:22:05.747Z,0.83
2019-01-18T04:24:33.929Z,0.90
2019-01-18T04:27:02.091Z,1.00
2019-01-18T04:29:30.204Z,1.00
2019-01-18T04:31:58.351Z,1.00
2019-01-18T04:34:26.471Z,1.00
2019-01-18T04:36:54.636Z,1.10
2019-01-18T04:39:22.732Z,0.80
2019-01-18T04:41:50.949Z,1.10
2019-01-18T04:44:19.183Z,0.70
2019-01-18T04:46:47.390Z,1.50
2019-01-18T04:49:17.227Z,0.80
2019-01-18T04:51:45.434Z,0.90
2019-01-18T04:54:13.562Z,0.93
2019-01-18T04:56:41.767Z,0.73
2019-01-18T04:59:09.904Z,0.63
2019-01-18T05:01:38.070Z,1.20
2019-01-18T05:04:06.211Z,0.73
2019-01-18T05:06:34.327Z,0.53
2019-01-18T05:09:03.335Z,0.67
2019-01-18T05:11:31.561Z,0.93
2019-01-18T05:13:59.700Z,0.40
2019-01-18T05:16:27.985Z,0.90
2019-01-18T05:18:56.137Z,0.53
2019-01-18T05:21:24.323Z,0.73
2019-01-18T05:23:52.441Z,0.80
2019-01-18T05:26:20.622Z,1.07
2019-01-18T05:28:48.873Z,0.67
2019-01-18T05:31:17.113Z,0.77
2019-01-18T05:33:45.265Z,0.70
2019-01-18T05:36:13.419Z,0.70
2019-01-18T05:38:41.666Z,0.70
2019-01-18T05:41:09.852Z,0.80
2019-01-18T05:43:37.979Z,0.70
2019-01-18T05:46:06.179Z,0.97
2019-01-18T05:48:34.318Z,1.23
2019-01-18T05:51:02.456Z,0.73
2019-01-18T05:53:30.846Z,0.80
2019-01-18T05:55:59.031Z,0.90
2019-01-18T05:58:27.165Z,0.83
2019-01-18T06:00:57.044Z,1.00
2019-01-18T06:03:25.370Z,0.83
2019-01-18T06:05:53.633Z,1.13
2019-01-18T06:08:21.771Z,0.77
2019-01-18T06:10:49.956Z,1.00
2019-01-18T06:13:18.090Z,1.10
2019-01-18T06:15:46.201Z,0.77
2019-01-18T06:18:14.353Z,1.10
2019-01-18T06:20:42.581Z,0.80
2019-01-18T06:23:10.735Z,1.00
2019-01-18T06:25:38.936Z,0.90
2019-01-18T06:28:07.153Z,0.87
2019-01-18T06:30:35.324Z,0.80
2019-01-18T06:33:03.494Z,1.10
2019-01-18T06:35:31.629Z,0.90
2019-01-18T06:37:59.841Z,1.00
2019-01-18T06:40:28.016Z,1.10
2019-01-18T06:42:56.127Z,0.80
2019-01-18T06:45:25.832Z,0.90
2019-01-18T06:47:54.010Z,1.00
2019-01-18T06:50:22.124Z,1.07
2019-01-18T06:52:50.239Z,1.10
2019-01-18T06:55:48.985Z,1.00
2019-01-18T06:58:17.080Z,1.30
2019-01-18T07:00:45.204Z,1.10
2019-01-18T07:03:13.336Z,1.23
2019-01-18T07:05:41.452Z,1.30
2019-01-18T07:08:09.811Z,1.10
2019-01-18T07:10:37.999Z,0.80
2019-01-18T07:13:06.196Z,0.83
2019-01-18T07:15:34.304Z,1.33
2019-01-18T07:18:02.435Z,1.10
2019-01-18T07:20:30.573Z,0.90
2019-01-18T07:22:58.704Z,1.07
2019-01-18T07:25:27.881Z,1.27
2019-01-18T07:27:55.980Z,1.07
2019-01-18T07:30:31.424Z,1.10
2019-01-18T07:32:59.553Z,1.10
2019-01-18T07:35:27.661Z,1.20
2019-01-18T07:37:55.784Z,0.90
2019-01-18T07:40:26.474Z,1.00
2019-01-18T07:42:54.705Z,0.80
2019-01-18T07:45:24.183Z,1.00
2019-01-18T07:47:52.350Z,0.77
2019-01-18T07:50:20.486Z,0.60
2019-01-18T07:52:54.982Z,1.00
2019-01-18T07:55:23.191Z,1.20
2019-01-18T07:57:51.337Z,1.07
2019-01-18T08:00:20.651Z,1.20
2019-01-18T08:02:48.840Z,0.83
2019-01-18T08:05:17.179Z,0.80
2019-01-18T08:07:45.345Z,1.27
2019-01-18T08:10:15.014Z,0.87
2019-01-18T08:12:43.128Z,0.83
2019-01-18T08:15:12.704Z,1.10
2019-01-18T08:17:40.851Z,0.70
2019-01-18T08:20:13.533Z,1.00
2019-01-18T08:22:41.873Z,0.97
2019-01-18T08:25:10.956Z,1.27
2019-01-18T08:27:39.070Z,1.03
2019-01-18T08:30:08.749Z,1.20
2019-01-18T08:32:36.874Z,0.80
2019-01-18T08:35:05.796Z,1.00
2019-01-18T08:37:33.977Z,1.00
2019-01-18T08:40:02.149Z,1.10
2019-01-18T08:42:30.345Z,1.00
2019-01-18T08:44:58.512Z,0.97
2019-01-18T08:47:26.675Z,0.70
2019-01-18T08:49:54.865Z,0.80
2019-01-18T08:52:23.021Z,1.10
2019-01-18T08:54:51.221Z,1.00
2019-01-18T08:57:19.416Z,1.03
2019-01-18T08:59:47.544Z,1.30
2019-01-18T09:02:15.721Z,1.37
2019-01-18T09:04:43.878Z,1.20
2019-01-18T09:07:12.064Z,1.00
2019-01-18T09:09:40.165Z,0.93
2019-01-18T09:12:08.318Z,1.17
2019-01-18T09:14:36.453Z,1.73
2019-01-18T09:17:04.577Z,1.53
2019-01-18T09:19:32.725Z,1.17
2019-01-18T09:22:02.715Z,1.40
2019-01-18T09:24:31.173Z,1.47
2019-01-18T09:26:59.335Z,1.37
2019-01-18T09:29:27.482Z,1.03
2019-01-18T09:31:55.610Z,1.30
2019-01-18T09:34:23.771Z,1.33
2019-01-18T09:36:51.978Z,2.57
2019-01-18T09:39:20.187Z,1.30
2019-01-18T09:41:53.004Z,1.17
2019-01-18T09:44:18.460Z,1.93
2019-01-18T09:46:46.607Z,1.43
2019-01-18T09:49:14.780Z,1.57
2019-01-18T09:51:42.935Z,1.50
2019-01-18T09:54:11.143Z,1.40
2019-01-18T09:56:39.363Z,1.10
2019-01-18T09:59:07.537Z,1.30
2019-01-18T10:01:35.709Z,1.50
2019-01-18T10:04:03.948Z,1.20
2019-01-18T10:06:32.068Z,1.83
2019-01-18T10:09:00.193Z,1.10
2019-01-18T10:11:28.344Z,1.40
2019-01-18T10:13:56.508Z,1.70
2019-01-18T10:16:24.692Z,1.43
2019-01-18T10:18:56.168Z,1.60
2019-01-18T10:21:24.306Z,1.30
2019-01-18T10:23:52.472Z,1.40
2019-01-18T10:26:20.629Z,1.53
2019-01-18T10:28:48.803Z,1.20
2019-01-18T10:31:16.982Z,1.00
2019-01-18T10:33:45.145Z,1.90
2019-01-18T10:36:13.324Z,1.60
2019-01-18T10:38:41.497Z,1.30
2019-01-18T10:41:09.677Z,1.47
2019-01-18T10:43:37.906Z,1.00
2019-01-18T10:46:06.046Z,1.40
2019-01-18T10:48:34.196Z,1.90
2019-01-18T10:51:02.342Z,1.57
2019-01-18T10:53:30.452Z,1.40
2019-01-18T10:55:58.566Z,1.33
2019-01-18T10:58:26.733Z,1.70
2019-01-18T11:00:54.905Z,1.20
2019-01-18T11:03:23.078Z,1.93
2019-01-18T11:05:51.266Z,1.30
2019-01-18T11:08:19.452Z,1.30
2019-01-18T11:10:47.588Z,1.77
2019-01-18T11:13:15.737Z,1.53
2019-01-18T11:15:43.897Z,1.60
2019-01-18T11:18:12.085Z,1.53
2019-01-18T11:20:41.845Z,1.43
2019-01-18T11:23:10.082Z,0.93
2019-01-18T11:25:38.309Z,1.20
2019-01-18T11:28:06.425Z,1.67
2019-01-18T11:30:34.576Z,1.70
2019-01-18T11:33:02.710Z,1.33
2019-01-18T11:35:30.924Z,1.63
2019-01-18T11:37:59.102Z,1.90
2019-01-18T11:40:27.253Z,1.80
2019-01-18T11:42:55.407Z,1.50
2019-01-18T11:45:23.593Z,1.17
2019-01-18T11:47:51.758Z,2.00
2019-01-18T11:50:24.404Z,1.17
2019-01-18T11:52:52.549Z,1.40
2019-01-18T11:55:20.670Z,1.20
2019-01-18T11:57:48.789Z,1.50
2019-01-18T12:00:18.219Z,1.07
2019-01-18T12:02:46.321Z,1.50
2019-01-18T12:05:18.957Z,1.43
2019-01-18T12:07:47.217Z,1.07
2019-01-18T12:10:19.401Z,1.50
2019-01-18T12:12:47.618Z,1.30
2019-01-18T12:15:15.900Z,1.73
2019-01-18T12:17:44.293Z,1.10
2019-01-18T12:20:16.617Z,1.40
2019-01-18T12:22:44.824Z,1.10
2019-01-18T12:25:13.168Z,1.27
2019-01-18T12:27:41.350Z,1.00
2019-01-18T12:30:14.009Z,1.17
2019-01-18T12:32:42.151Z,1.40
2019-01-18T12:35:10.357Z,1.43
2019-01-18T12:37:38.456Z,1.10
2019-01-18T12:40:07.437Z,1.10
2019-01-18T12:42:35.581Z,1.27
2019-01-18T12:45:05.251Z,1.40
2019-01-18T12:47:33.404Z,1.50
2019-01-18T12:50:01.553Z,1.33
2019-01-18T12:52:29.668Z,1.50
2019-01-18T12:54:57.797Z,1.03
2019-01-18T12:57:25.936Z,1.63
2019-01-18T12:59:54.088Z,1.60
2019-01-18T13:02:22.306Z,1.73
2019-01-18T13:04:50.434Z,1.30
2019-01-18T13:07:18.648Z,1.10
2019-01-18T13:09:46.788Z,1.20
2019-01-18T13:12:14.994Z,1.00
2019-01-18T13:14:43.096Z,1.37
2019-01-18T13:17:11.308Z,1.27
2019-01-18T13:19:39.519Z,1.07
2019-01-18T13:22:07.721Z,1.27
2019-01-18T13:24:35.853Z,1.50
2019-01-18T13:27:04.186Z,1.20
2019-01-18T13:29:32.428Z,1.13
2019-01-18T13:32:00.678Z,0.70
2019-01-18T13:34:28.873Z,1.17
2019-01-18T13:36:57.074Z,1.43
2019-01-18T13:39:25.209Z,1.20
2019-01-18T13:41:53.555Z,1.43
2019-01-18T13:44:21.681Z,1.30
2019-01-18T13:46:49.839Z,1.50
2019-01-18T13:49:18.049Z,1.23
2019-01-18T13:51:46.382Z,1.20
2019-01-18T13:54:14.562Z,1.47
2019-01-18T13:56:42.757Z,1.50
2019-01-18T13:59:10.875Z,1.67
2019-01-18T14:01:39.024Z,1.40
2019-01-18T14:04:07.216Z,1.40
2019-01-18T14:06:35.370Z,1.47
2019-01-18T14:09:05.133Z,1.20
2019-01-18T14:11:33.260Z,2.03
2019-01-18T14:14:01.397Z,1.60
2019-01-18T14:16:29.508Z,2.10
2019-01-18T14:18:57.620Z,1.87
2019-01-18T14:21:25.937Z,1.60
2019-01-18T14:23:54.083Z,1.00
2019-01-18T14:26:22.261Z,1.30
2019-01-18T14:28:50.406Z,1.80
2019-01-18T14:31:18.509Z,1.90
2019-01-18T14:33:46.640Z,1.87
2019-01-18T14:36:14.786Z,2.20
2019-01-18T14:38:42.992Z,1.97
2019-01-18T14:41:11.114Z,1.60
2019-01-18T14:43:39.270Z,1.60
2019-01-18T14:46:07.497Z,1.60
2019-01-18T14:48:35.617Z,1.77
2019-01-18T14:51:04.101Z,1.30
2019-01-18T14:53:32.289Z,1.50
2019-01-18T14:56:00.412Z,2.20
2019-01-18T14:58:28.544Z,1.70
2019-01-18T15:00:56.701Z,2.10
2019-01-18T15:03:24.908Z,2.03
2019-01-18T15:05:53.105Z,2.20
2019-01-18T15:08:24.329Z,1.70
2019-01-18T15:10:51.099Z,1.97
2019-01-18T15:13:19.225Z,1.80
2019-01-18T15:15:47.382Z,2.10
2019-01-18T15:18:16.732Z,1.50
2019-01-18T15:20:44.847Z,2.00
2019-01-18T15:23:12.954Z,2.00
2019-01-18T15:25:41.092Z,2.00
2019-01-18T15:28:09.272Z,1.70
2019-01-18T15:30:37.430Z,1.70
2019-01-18T15:33:09.457Z,1.67
2019-01-18T15:35:35.972Z,2.07
2019-01-18T15:38:04.950Z,2.00
2019-01-18T15:40:35.189Z,3.43
2019-01-18T15:43:03.874Z,2.60
2019-01-18T15:45:32.233Z,3.03
2019-01-18T15:48:00.366Z,2.00
2019-01-18T15:50:29.770Z,3.20
2019-01-18T15:52:57.921Z,1.67
2019-01-18T15:55:26.234Z,2.03
2019-01-18T15:57:54.375Z,2.37
2019-01-18T16:00:27.005Z,2.40
2019-01-18T16:02:55.585Z,2.20
2019-01-18T16:05:23.714Z,1.43
2019-01-18T16:07:51.829Z,1.93
2019-01-18T16:10:19.942Z,2.30
2019-01-18T16:12:48.085Z,1.83
2019-01-18T16:15:17.805Z,1.90
2019-01-18T16:17:46.994Z,2.10
2019-01-18T16:20:16.487Z,2.12
2019-01-18T16:22:44.861Z,2.40
2019-01-18T16:25:14.553Z,2.43
2019-01-18T16:27:42.680Z,2.00
2019-01-18T16:30:12.386Z,2.10
2019-01-18T16:32:40.497Z,2.00
2019-01-18T16:35:09.795Z,2.07
2019-01-18T16:37:37.931Z,2.33
2019-01-18T16:40:10.950Z,2.77
2019-01-18T16:42:39.088Z,2.70
2019-01-18T16:45:08.752Z,2.30
2019-01-18T16:47:36.905Z,2.77
2019-01-18T16:50:06.650Z,2.30
2019-01-18T16:52:34.840Z,4.57
2019-01-18T16:55:03.214Z,3.97
2019-01-18T16:57:31.346Z,2.40
2019-01-18T16:59:59.481Z,3.03
2019-01-18T17:02:27.577Z,2.80
2019-01-18T17:04:55.710Z,3.13
2019-01-18T17:07:23.840Z,7.03
2019-01-18T17:09:52.003Z,5.37
2019-01-18T17:12:20.141Z,4.17
2019-01-18T17:14:48.275Z,3.40
2019-01-18T17:17:16.406Z,2.77
2019-01-18T17:19:44.541Z,2.77
2019-01-18T17:22:12.669Z,2.27
2019-01-18T17:24:40.793Z,2.70
2019-01-18T17:27:08.940Z,3.00
2019-01-18T17:29:37.052Z,2.80
2019-01-18T17:32:05.234Z,3.00
2019-01-18T17:34:33.412Z,2.70
2019-01-18T17:37:01.517Z,2.70
2019-01-18T17:39:31.168Z,3.10
2019-01-18T17:42:00.816Z,3.00
2019-01-18T17:44:42.409Z,3.13
2019-01-18T17:47:15.044Z,2.80
2019-01-18T17:49:44.769Z,2.80
2019-01-18T17:52:20.412Z,2.93
2019-01-18T17:54:56.123Z,2.83
2019-01-18T17:57:34.688Z,2.60
2019-01-18T18:00:09.029Z,3.27
2019-01-18T18:02:53.621Z,3.20
2019-01-18T18:05:25.968Z,2.57
2019-01-18T18:07:55.661Z,2.93
2019-01-18T18:10:25.394Z,3.87
2019-01-18T18:13:06.880Z,4.30
2019-01-18T18:15:36.604Z,3.20
2019-01-18T18:18:06.257Z,3.10
2019-01-18T18:20:36.022Z,3.93
2019-01-18T18:23:14.419Z,5.83
2019-01-18T18:25:52.949Z,7.13
2019-01-18T18:28:25.510Z,3.87
2019-01-18T18:30:55.225Z,4.73
2019-01-18T18:33:41.784Z,4.20
2019-01-18T18:36:14.340Z,3.30
2019-01-18T18:38:46.892Z,2.23
2019-01-18T18:41:33.401Z,2.90
2019-01-18T18:44:21.104Z,2.20
2019-01-18T18:47:08.761Z,1.73
2019-01-18T18:49:55.162Z,2.40
2019-01-18T18:52:24.903Z,2.20
2019-01-18T18:54:54.586Z,2.50
2019-01-18T18:57:40.966Z,4.77
2019-01-18T19:00:13.345Z,3.37
2019-01-18T19:02:45.980Z,3.23
2019-01-18T19:05:32.402Z,8.00
2019-01-18T19:08:08.192Z,3.03
2019-01-18T19:10:40.782Z,3.30
2019-01-18T19:13:10.521Z,3.53
2019-01-18T19:15:40.202Z,3.10
2019-01-18T19:18:12.837Z,3.60
2019-01-18T19:20:51.566Z,5.83
2019-01-18T19:23:23.957Z,2.80
2019-01-18T19:25:53.607Z,2.60
2019-01-18T19:28:32.481Z,3.30
2019-01-18T19:31:02.116Z,5.17
2019-01-18T19:33:47.005Z,3.40
2019-01-18T19:36:22.565Z,3.87
2019-01-18T19:39:13.500Z,2.87
2019-01-18T19:42:01.645Z,3.10
2019-01-18T19:44:46.863Z,3.37
2019-01-18T19:47:17.052Z,3.30
2019-01-18T19:49:52.604Z,3.30
2019-01-18T19:52:32.229Z,3.80
2019-01-18T19:55:10.879Z,4.47
2019-01-18T19:57:43.367Z,3.50
2019-01-18T20:00:13.100Z,3.80
2019-01-18T20:02:54.716Z,4.13
2019-01-18T20:05:27.092Z,5.20
2019-01-18T20:07:59.568Z,4.10
2019-01-18T20:10:41.202Z,4.30
2019-01-18T20:13:13.633Z,4.00
2019-01-18T20:15:45.956Z,4.13
2019-01-18T20:18:21.328Z,2.87
2019-01-18T20:20:51.024Z,4.00
2019-01-18T20:23:37.492Z,3.73
2019-01-18T20:26:07.168Z,3.07
2019-01-18T20:28:39.838Z,3.70
2019-01-18T20:31:12.353Z,2.77
2019-01-18T20:33:48.124Z,3.63
2019-01-18T20:36:17.794Z,4.20
2019-01-18T20:38:50.369Z,4.27
2019-01-18T20:41:20.010Z,3.63
2019-01-18T20:43:55.761Z,4.53
2019-01-18T20:46:43.437Z,3.00
2019-01-18T20:49:13.110Z,3.70
2019-01-18T20:51:42.777Z,3.87
2019-01-18T20:54:28.962Z,4.20
2019-01-18T20:57:15.202Z,4.03
2019-01-18T20:59:44.886Z,3.70
2019-01-18T21:02:15.473Z,4.03
2019-01-18T21:05:03.343Z,3.57
2019-01-18T21:07:33.022Z,3.80
2019-01-18T21:10:08.456Z,3.60
2019-01-18T21:12:38.206Z,2.90
2019-01-18T21:15:10.898Z,3.53
2019-01-18T21:17:57.305Z,3.33
2019-01-18T21:20:29.715Z,3.60
2019-01-18T21:22:59.448Z,3.50
2019-01-18T21:25:29.105Z,4.40
2019-01-18T21:28:17.104Z,4.77
2019-01-18T21:30:59.086Z,4.00
2019-01-18T21:33:31.840Z,3.73
2019-01-18T21:36:01.586Z,2.47
2019-01-18T21:38:31.322Z,3.47
2019-01-18T21:41:12.916Z,4.03
2019-01-18T21:43:59.117Z,3.30
2019-01-18T21:46:31.439Z,3.43
2019-01-18T21:49:18.127Z,4.10
2019-01-18T21:51:54.051Z,4.07
2019-01-18T21:54:33.008Z,4.00
2019-01-18T21:57:19.267Z,4.43
2019-01-18T21:59:48.933Z,4.87
2019-01-18T22:02:30.853Z,5.33
2019-01-18T22:05:17.337Z,4.03
2019-01-18T22:07:53.219Z,3.97
2019-01-18T22:10:29.008Z,3.50
2019-01-18T22:13:01.714Z,3.40
2019-01-18T22:15:43.658Z,3.40
2019-01-18T22:18:13.537Z,4.20
2019-01-18T22:20:49.069Z,3.33
2019-01-18T22:23:21.453Z,3.67
2019-01-18T22:26:07.902Z,3.80
2019-01-18T22:28:40.240Z,3.60
2019-01-18T22:31:09.934Z,3.50
2019-01-18T22:33:42.505Z,4.73
2019-01-18T22:36:15.141Z,3.97
2019-01-18T22:38:47.613Z,3.53
2019-01-18T22:41:35.293Z,2.90
2019-01-18T22:44:20.854Z,2.77
2019-01-18T22:47:00.404Z,3.40
2019-01-18T22:49:30.064Z,2.57
2019-01-18T22:52:02.536Z,3.23
2019-01-18T22:54:48.701Z,2.53
2019-01-18T22:57:21.378Z,3.00
2019-01-18T22:59:51.034Z,2.67
2019-01-18T23:02:20.721Z,2.70
2019-01-18T23:04:55.461Z,2.80
2019-01-18T23:07:21.851Z,2.23
2019-01-18T23:09:54.204Z,2.70
2019-01-18T23:12:23.913Z,2.50
2019-01-18T23:14:59.709Z,2.87
2019-01-18T23:17:29.377Z,2.90
2019-01-18T23:20:04.785Z,3.10
2019-01-18T23:22:52.718Z,3.50
2019-01-18T23:25:22.432Z,3.00
2019-01-18T23:28:04.108Z,3.20
2019-01-18T23:30:34.003Z,3.30
2019-01-18T23:33:09.609Z,3.00
2019-01-18T23:35:39.309Z,3.00
2019-01-18T23:38:14.990Z,3.30
2019-01-18T23:40:59.999Z,2.47
2019-01-18T23:43:35.679Z,2.93
2019-01-18T23:46:11.106Z,2.70
2019-01-18T23:48:46.466Z,2.90
2019-01-18T23:51:28.141Z,2.37
2019-01-18T23:54:00.472Z,2.80
2019-01-18T23:56:35.842Z,2.73
2019-01-18T23:59:05.586Z,2.40
